Terminal Aerodrome Forecast
Issued by NWS

Home | Current Version | Previous Version | Text Only | Print | Product List | Glossary Off
Versions: 1 2 3 4 5 6 7 8 9 10 11 12 13 14 15 16 17 18 19

000
FTUS43 KIWX 172324
TAFSBN
TAF
KSBN 172324Z 1800/1824 35005KT P6SM VCSH SCT060 OVC110
     FM180200 VRB03KT P6SM BKN100
     FM181500 02007KT P6SM SCT060=

USA.gov is the U.S. government's official web portal to all federal, state and local government web resources and services.